createdAt,value
2023-05-06T00:02:19.710Z,54.21
2023-05-06T00:04:46.465Z,54.33
2023-05-06T00:07:13.189Z,54.26
2023-05-06T00:09:39.776Z,54.26
2023-05-06T00:12:06.429Z,54.41
2023-05-06T00:14:33.079Z,54.26
2023-05-06T00:16:59.693Z,54.37
2023-05-06T00:19:26.430Z,54.48
2023-05-06T00:21:53.025Z,54.55
2023-05-06T00:24:19.582Z,54.75
2023-05-06T00:26:46.162Z,54.76
2023-05-06T00:29:12.892Z,54.82
2023-05-06T00:31:39.638Z,54.79
2023-05-06T00:34:06.335Z,54.72
2023-05-06T00:36:33.007Z,54.81
2023-05-06T00:38:59.940Z,54.91
2023-05-06T00:41:31.142Z,54.84
2023-05-06T00:43:57.780Z,54.88
2023-05-06T00:46:24.889Z,54.94
2023-05-06T00:48:52.536Z,55.10
2023-05-06T00:51:19.225Z,55.16
2023-05-06T00:53:49.057Z,55.10
2023-05-06T00:56:20.030Z,55.21
2023-05-06T00:58:47.894Z,55.17
2023-05-06T01:01:14.606Z,55.51
2023-05-06T01:03:41.292Z,55.34
2023-05-06T01:06:14.043Z,55.60
2023-05-06T01:08:51.961Z,55.46
2023-05-06T01:11:35.567Z,55.61
2023-05-06T01:14:19.255Z,55.64
2023-05-06T01:16:49.319Z,55.54
2023-05-06T01:19:36.723Z,55.54
2023-05-06T01:22:06.087Z,55.63
2023-05-06T01:24:37.698Z,55.66
2023-05-06T01:27:04.369Z,55.71
2023-05-06T01:29:34.125Z,55.71
2023-05-06T01:32:07.996Z,55.73
2023-05-06T01:34:43.804Z,55.76
2023-05-06T01:37:25.808Z,55.66
2023-05-06T01:39:56.139Z,55.79
2023-05-06T01:42:24.603Z,55.76
2023-05-06T01:44:53.083Z,55.68
2023-05-06T01:47:20.041Z,55.82
2023-05-06T01:49:47.868Z,55.83
2023-05-06T01:52:17.601Z,55.78
2023-05-06T01:54:44.396Z,55.88
2023-05-06T01:57:11.037Z,55.78
2023-05-06T01:59:37.699Z,55.76
2023-05-06T02:02:04.419Z,55.93
2023-05-06T02:04:31.981Z,55.70
2023-05-06T02:06:58.669Z,55.73
2023-05-06T02:09:25.331Z,55.78
2023-05-06T02:11:56.470Z,55.83
2023-05-06T02:14:23.749Z,55.91
2023-05-06T02:16:50.646Z,56.06
2023-05-06T02:19:17.451Z,55.91
2023-05-06T02:21:44.079Z,55.86
2023-05-06T02:24:10.704Z,55.79
2023-05-06T02:26:37.312Z,55.90
2023-05-06T02:29:04.145Z,56.00
2023-05-06T02:31:31.783Z,55.98
2023-05-06T02:33:58.478Z,56.01
2023-05-06T02:36:25.174Z,56.03
2023-05-06T02:38:54.549Z,56.15
2023-05-06T02:41:21.345Z,56.37
2023-05-06T02:43:47.965Z,56.42
2023-05-06T02:46:14.728Z,56.65
2023-05-06T02:48:42.147Z,56.40
2023-05-06T02:51:08.806Z,56.63
2023-05-06T02:53:35.511Z,56.64
2023-05-06T02:56:02.131Z,56.73
2023-05-06T02:58:29.307Z,56.67
2023-05-06T03:00:56.083Z,56.68
2023-05-06T03:03:22.880Z,56.73
2023-05-06T03:05:49.569Z,56.93
2023-05-06T03:08:16.335Z,57.02
2023-05-06T03:10:42.997Z,57.16
2023-05-06T03:13:09.720Z,57.21
2023-05-06T03:15:37.337Z,57.15
2023-05-06T03:18:04.079Z,57.14
2023-05-06T03:20:30.741Z,57.40
2023-05-06T03:22:58.406Z,57.42
2023-05-06T03:25:25.088Z,57.64
2023-05-06T03:27:52.124Z,57.70
2023-05-06T03:30:21.127Z,57.56
2023-05-06T03:32:48.983Z,57.66
2023-05-06T03:35:20.539Z,57.71
2023-05-06T03:37:51.312Z,57.97
2023-05-06T03:40:18.589Z,58.14
2023-05-06T03:42:46.131Z,58.23
2023-05-06T03:45:13.457Z,58.42
2023-05-06T03:47:40.983Z,58.39
2023-05-06T03:50:08.924Z,58.39
2023-05-06T03:52:36.136Z,58.38
2023-05-06T03:55:03.279Z,58.72
2023-05-06T03:57:30.865Z,58.53
2023-05-06T03:59:57.928Z,58.59
2023-05-06T04:02:25.749Z,58.81
2023-05-06T04:04:52.858Z,58.80
2023-05-06T04:07:19.610Z,58.95
2023-05-06T04:09:46.345Z,58.85
2023-05-06T04:12:13.810Z,58.87
2023-05-06T04:14:40.464Z,58.71
2023-05-06T04:17:07.793Z,58.79
2023-05-06T04:19:34.723Z,58.90
2023-05-06T04:22:01.422Z,58.96
2023-05-06T04:24:31.457Z,58.99
2023-05-06T04:26:58.756Z,59.12
2023-05-06T04:29:27.061Z,59.24
2023-05-06T04:31:57.942Z,59.26
2023-05-06T04:34:27.841Z,59.35
2023-05-06T04:36:55.445Z,59.27
2023-05-06T04:39:37.032Z,59.14
2023-05-06T04:42:04.062Z,59.15
2023-05-06T04:44:36.669Z,59.04
2023-05-06T04:47:04.252Z,59.06
2023-05-06T04:49:31.406Z,59.32
2023-05-06T04:51:58.587Z,59.03
2023-05-06T04:54:25.499Z,58.97
2023-05-06T04:56:52.180Z,59.09
2023-05-06T04:59:19.290Z,58.96
2023-05-06T05:01:46.204Z,59.03
2023-05-06T05:04:12.917Z,59.28
2023-05-06T05:06:39.865Z,59.31
2023-05-06T05:09:06.494Z,59.56
2023-05-06T05:11:33.506Z,59.51
2023-05-06T05:14:02.204Z,59.67
2023-05-06T05:16:30.156Z,59.79
2023-05-06T05:18:57.038Z,60.35
2023-05-06T05:21:26.576Z,60.64
2023-05-06T05:23:54.824Z,61.06
2023-05-06T05:26:21.988Z,61.05
2023-05-06T05:28:49.417Z,61.28
2023-05-06T05:31:16.815Z,61.56
2023-05-06T05:33:43.656Z,61.57
2023-05-06T05:36:15.453Z,61.70
2023-05-06T05:38:43.373Z,61.68
2023-05-06T05:41:10.430Z,61.33
2023-05-06T05:43:37.335Z,61.32
2023-05-06T05:46:04.410Z,61.26
2023-05-06T05:48:32.819Z,61.29
2023-05-06T05:51:03.438Z,61.18
2023-05-06T05:53:30.148Z,61.17
2023-05-06T05:55:57.059Z,61.06
2023-05-06T05:58:24.199Z,60.89
2023-05-06T06:00:51.159Z,60.89
2023-05-06T06:03:18.798Z,60.68
2023-05-06T06:05:45.621Z,60.81
2023-05-06T06:08:13.041Z,60.62
2023-05-06T06:10:39.868Z,60.48
2023-05-06T06:13:11.025Z,60.41
2023-05-06T06:15:37.732Z,60.45
2023-05-06T06:18:04.521Z,60.44
2023-05-06T06:20:31.883Z,60.23
2023-05-06T06:22:58.592Z,60.14
2023-05-06T06:25:25.547Z,60.00
2023-05-06T06:27:55.285Z,60.19
2023-05-06T06:30:22.113Z,59.65
2023-05-06T06:32:50.918Z,59.34
2023-05-06T06:35:17.820Z,58.54
2023-05-06T06:37:44.849Z,57.86
2023-05-06T06:40:12.472Z,57.19
2023-05-06T06:42:39.132Z,56.74
2023-05-06T06:45:19.118Z,56.77
2023-05-06T06:47:45.771Z,57.19
2023-05-06T06:50:12.618Z,57.08
2023-05-06T06:52:39.300Z,57.03
2023-05-06T06:55:06.620Z,56.95
2023-05-06T06:57:33.194Z,56.90
2023-05-06T06:59:59.809Z,56.48
2023-05-06T07:02:26.452Z,56.01
2023-05-06T07:04:53.899Z,56.13
2023-05-06T07:07:20.757Z,55.75
2023-05-06T07:09:47.408Z,55.15
2023-05-06T07:12:14.091Z,54.97
2023-05-06T07:14:41.459Z,54.80
2023-05-06T07:17:08.072Z,54.64
2023-05-06T07:19:34.660Z,54.15
2023-05-06T07:22:03.088Z,53.93
2023-05-06T07:24:29.736Z,53.69
2023-05-06T07:26:56.714Z,53.28
2023-05-06T07:29:23.431Z,52.45
2023-05-06T07:31:50.178Z,52.66
2023-05-06T07:34:16.888Z,52.72
2023-05-06T07:36:44.835Z,52.59
2023-05-06T07:39:12.601Z,52.22
2023-05-06T07:41:39.586Z,52.40
2023-05-06T07:44:06.566Z,52.04
2023-05-06T07:46:33.765Z,51.49
2023-05-06T07:49:00.524Z,49.90
2023-05-06T07:51:27.312Z,49.42
2023-05-06T07:53:53.952Z,49.57
2023-05-06T07:56:20.732Z,49.63
2023-05-06T07:58:49.407Z,49.70
2023-05-06T08:01:16.439Z,49.64
2023-05-06T08:03:44.131Z,49.62
2023-05-06T08:06:11.089Z,49.36
2023-05-06T08:08:37.724Z,48.69
2023-05-06T08:11:04.904Z,48.40
2023-05-06T08:13:33.522Z,48.32
2023-05-06T08:16:02.597Z,48.56
2023-05-06T08:18:29.971Z,48.67
2023-05-06T08:20:56.859Z,47.94
2023-05-06T08:23:23.716Z,47.17
2023-05-06T08:25:50.346Z,46.88
2023-05-06T08:28:17.109Z,47.10
2023-05-06T08:30:46.026Z,46.94
2023-05-06T08:33:12.681Z,45.59
2023-05-06T08:35:39.300Z,45.71
2023-05-06T08:38:05.901Z,45.65
2023-05-06T08:40:33.846Z,45.56
2023-05-06T08:43:03.409Z,44.86
2023-05-06T08:45:30.325Z,45.44
2023-05-06T08:47:58.149Z,44.57
2023-05-06T08:50:25.860Z,45.35
2023-05-06T08:52:52.759Z,45.91
2023-05-06T08:55:21.646Z,45.72
2023-05-06T08:57:49.530Z,45.17
2023-05-06T09:00:17.623Z,44.29
2023-05-06T09:02:44.472Z,44.17
2023-05-06T09:05:12.506Z,44.10
2023-05-06T09:07:39.554Z,44.02
2023-05-06T09:10:13.756Z,43.77
2023-05-06T09:12:40.614Z,43.27
2023-05-06T09:15:09.470Z,43.72
2023-05-06T09:17:36.668Z,43.41
2023-05-06T09:20:03.717Z,43.62
2023-05-06T09:22:31.452Z,43.14
2023-05-06T09:24:59.088Z,43.21
2023-05-06T09:27:28.376Z,43.30
2023-05-06T09:30:05.984Z,42.51
2023-05-06T09:32:33.508Z,42.56
2023-05-06T09:35:00.980Z,42.88
2023-05-06T09:37:28.240Z,42.57
2023-05-06T09:39:57.508Z,42.78
2023-05-06T09:42:26.585Z,42.85
2023-05-06T09:44:55.706Z,42.81
2023-05-06T09:47:24.176Z,42.29
2023-05-06T09:49:50.891Z,42.14
2023-05-06T09:52:19.515Z,41.80
2023-05-06T09:54:46.883Z,41.40
2023-05-06T09:57:17.264Z,41.59
2023-05-06T09:59:45.167Z,41.43
2023-05-06T10:02:13.444Z,41.80
2023-05-06T10:04:45.941Z,42.03
2023-05-06T10:07:13.719Z,41.96
2023-05-06T10:09:42.299Z,41.80
2023-05-06T10:12:10.022Z,42.29
2023-05-06T10:14:37.607Z,42.22
2023-05-06T10:17:11.683Z,41.57
2023-05-06T10:19:42.339Z,41.04
2023-05-06T10:22:17.200Z,41.01
2023-05-06T10:24:56.058Z,40.86
2023-05-06T10:27:24.985Z,40.37
2023-05-06T10:29:57.884Z,40.49
2023-05-06T10:32:30.007Z,40.55
2023-05-06T10:34:59.381Z,40.62
2023-05-06T10:37:28.644Z,40.72
2023-05-06T10:39:56.506Z,40.25
2023-05-06T10:42:34.128Z,39.20
2023-05-06T10:45:04.033Z,39.15
2023-05-06T10:48:03.084Z,39.11
2023-05-06T10:50:29.677Z,39.28
2023-05-06T10:52:59.002Z,39.78
2023-05-06T10:55:37.800Z,39.86
2023-05-06T10:58:15.454Z,39.99
2023-05-06T11:00:42.614Z,39.67
2023-05-06T11:03:14.065Z,40.10
2023-05-06T11:05:51.980Z,39.70
2023-05-06T11:08:26.092Z,39.57
2023-05-06T11:10:55.829Z,39.58
2023-05-06T11:13:27.662Z,39.55
2023-05-06T11:15:57.169Z,39.33
2023-05-06T11:18:31.891Z,39.23
2023-05-06T11:21:00.391Z,38.73
2023-05-06T11:23:42.662Z,38.60
2023-05-06T11:26:11.181Z,38.27
2023-05-06T11:28:40.474Z,38.84
2023-05-06T11:31:08.375Z,38.96
2023-05-06T11:33:37.364Z,38.85
2023-05-06T11:36:05.015Z,38.81
2023-05-06T11:38:45.662Z,38.78
2023-05-06T11:41:13.474Z,38.65
2023-05-06T11:43:40.250Z,38.34
2023-05-06T11:46:07.233Z,38.62
2023-05-06T11:48:33.934Z,38.37
2023-05-06T11:51:00.721Z,38.48
2023-05-06T11:53:27.381Z,38.44
2023-05-06T11:55:54.865Z,38.00
2023-05-06T11:58:27.471Z,37.83
2023-05-06T12:00:59.143Z,37.54
2023-05-06T12:03:28.783Z,37.19
2023-05-06T12:05:56.227Z,37.67
2023-05-06T12:08:30.013Z,37.64
2023-05-06T12:11:01.005Z,37.59
2023-05-06T12:13:28.453Z,37.95
2023-05-06T12:15:56.402Z,38.24
2023-05-06T12:18:24.042Z,38.09
2023-05-06T12:20:53.808Z,37.64
2023-05-06T12:23:22.091Z,37.79
2023-05-06T12:26:04.210Z,38.29
2023-05-06T12:28:32.756Z,38.23
2023-05-06T12:31:17.804Z,38.27
2023-05-06T12:33:46.536Z,38.17
2023-05-06T12:36:13.461Z,37.97
2023-05-06T12:38:50.619Z,38.29
2023-05-06T12:41:17.412Z,38.18
2023-05-06T12:43:44.086Z,38.37
2023-05-06T12:46:12.444Z,37.91
2023-05-06T12:48:39.553Z,37.97
2023-05-06T12:51:19.824Z,37.48
2023-05-06T12:53:46.586Z,37.82
2023-05-06T12:56:13.868Z,38.03
2023-05-06T12:58:40.583Z,37.87
2023-05-06T13:01:09.857Z,38.28
2023-05-06T13:03:38.832Z,38.12
2023-05-06T13:06:05.900Z,37.77
2023-05-06T13:08:32.650Z,37.57
2023-05-06T13:11:01.744Z,37.17
2023-05-06T13:13:28.703Z,37.15
2023-05-06T13:15:55.849Z,37.60
2023-05-06T13:18:22.492Z,37.63
2023-05-06T13:20:49.127Z,37.77
2023-05-06T13:23:15.692Z,38.00
2023-05-06T13:26:00.346Z,38.68
2023-05-06T13:28:28.933Z,38.66
2023-05-06T13:30:55.584Z,39.12
2023-05-06T13:33:22.291Z,39.14
2023-05-06T13:35:48.915Z,39.25
2023-05-06T13:38:15.513Z,39.01
2023-05-06T13:40:42.082Z,38.44
2023-05-06T13:43:09.064Z,38.13
2023-05-06T13:45:35.707Z,38.45
2023-05-06T13:48:02.326Z,38.35
2023-05-06T13:50:29.108Z,38.65
2023-05-06T13:52:55.761Z,38.92
2023-05-06T13:55:22.347Z,38.90
2023-05-06T13:57:48.918Z,39.05
2023-05-06T14:00:16.043Z,38.88
2023-05-06T14:02:42.734Z,39.40
2023-05-06T14:05:10.712Z,39.33
2023-05-06T14:07:40.200Z,39.61
2023-05-06T14:10:08.790Z,39.56
2023-05-06T14:12:35.542Z,40.08
2023-05-06T14:15:02.292Z,40.45
2023-05-06T14:17:28.985Z,40.58
2023-05-06T14:19:55.849Z,40.66
2023-05-06T14:22:22.493Z,40.85
2023-05-06T14:24:49.234Z,41.31
2023-05-06T14:27:15.956Z,41.41
2023-05-06T14:29:43.308Z,41.15
2023-05-06T14:32:09.946Z,41.32
2023-05-06T14:34:36.948Z,41.34
2023-05-06T14:37:03.728Z,41.20
2023-05-06T14:39:30.661Z,41.36
2023-05-06T14:41:57.629Z,41.49
2023-05-06T14:44:24.216Z,42.18
2023-05-06T14:46:50.927Z,42.06
2023-05-06T14:49:17.615Z,42.25
2023-05-06T14:51:44.509Z,42.52
2023-05-06T14:54:11.373Z,42.92
2023-05-06T14:56:38.088Z,43.14
2023-05-06T14:59:04.734Z,42.92
2023-05-06T15:01:33.728Z,43.10
2023-05-06T15:04:00.500Z,43.23
2023-05-06T15:06:27.401Z,43.20
2023-05-06T15:08:54.126Z,43.15
2023-05-06T15:11:21.025Z,43.28
2023-05-06T15:13:47.662Z,43.34
2023-05-06T15:16:16.964Z,43.27
2023-05-06T15:18:45.122Z,43.24
2023-05-06T15:21:13.321Z,43.65
2023-05-06T15:23:39.984Z,43.56
2023-05-06T15:26:06.738Z,43.52
2023-05-06T15:28:33.410Z,43.90
2023-05-06T15:31:00.124Z,43.95
2023-05-06T15:33:26.817Z,43.92
2023-05-06T15:35:53.407Z,44.34
2023-05-06T15:38:20.046Z,44.40
2023-05-06T15:40:51.365Z,44.83
2023-05-06T15:43:23.604Z,45.07
2023-05-06T15:45:51.293Z,45.37
2023-05-06T15:48:18.122Z,45.54
2023-05-06T15:50:44.914Z,45.44
2023-05-06T15:53:11.720Z,46.04
2023-05-06T15:55:46.775Z,46.65
2023-05-06T15:58:19.395Z,47.21
2023-05-06T16:00:45.954Z,47.36
2023-05-06T16:03:12.915Z,47.73
2023-05-06T16:05:39.949Z,47.82
2023-05-06T16:08:06.681Z,47.71
2023-05-06T16:10:35.506Z,47.16
2023-05-06T16:13:02.200Z,47.10
2023-05-06T16:15:28.904Z,46.98
2023-05-06T16:17:56.057Z,46.78
2023-05-06T16:20:22.797Z,46.61
2023-05-06T16:22:50.818Z,46.48
2023-05-06T16:25:17.538Z,46.24
2023-05-06T16:27:44.198Z,46.17
2023-05-06T16:30:11.418Z,46.01
2023-05-06T16:32:38.322Z,45.79
2023-05-06T16:35:05.528Z,45.75
2023-05-06T16:37:32.105Z,45.92
2023-05-06T16:39:58.692Z,45.96
2023-05-06T16:42:25.289Z,45.95
2023-05-06T16:44:52.047Z,45.83
2023-05-06T16:47:23.540Z,46.05
2023-05-06T16:49:50.724Z,45.94
2023-05-06T16:52:17.904Z,46.26
2023-05-06T16:54:44.672Z,46.35
2023-05-06T16:57:11.841Z,46.30
2023-05-06T16:59:38.571Z,46.16
2023-05-06T17:02:05.316Z,46.32
2023-05-06T17:04:31.901Z,46.30
2023-05-06T17:06:58.589Z,46.43
2023-05-06T17:09:26.696Z,46.48
2023-05-06T17:11:53.310Z,46.49
2023-05-06T17:14:19.971Z,46.57
2023-05-06T17:16:47.237Z,46.76
2023-05-06T17:19:14.091Z,46.87
2023-05-06T17:21:41.045Z,47.23
2023-05-06T17:24:07.748Z,47.48
2023-05-06T17:26:35.219Z,47.51
2023-05-06T17:29:01.979Z,47.86
2023-05-06T17:31:28.693Z,47.98
2023-05-06T17:33:55.430Z,48.23
2023-05-06T17:36:22.100Z,48.65
2023-05-06T17:38:49.153Z,48.79
2023-05-06T17:41:15.961Z,49.14
2023-05-06T17:43:43.415Z,49.27
2023-05-06T17:46:10.151Z,49.54
2023-05-06T17:48:36.896Z,49.71
2023-05-06T17:51:03.613Z,49.59
2023-05-06T17:53:32.395Z,50.05
2023-05-06T17:55:59.053Z,50.05
2023-05-06T17:58:25.710Z,50.45
2023-05-06T18:00:52.405Z,50.62
2023-05-06T18:03:19.167Z,51.20
2023-05-06T18:05:45.973Z,51.18
2023-05-06T18:08:12.694Z,51.58
2023-05-06T18:10:41.157Z,51.75
2023-05-06T18:13:08.891Z,51.86
2023-05-06T18:15:35.867Z,52.19
2023-05-06T18:18:02.855Z,52.48
2023-05-06T18:20:29.480Z,52.84
2023-05-06T18:22:56.730Z,52.87
2023-05-06T18:25:23.471Z,52.89
2023-05-06T18:27:50.147Z,53.07
2023-05-06T18:30:16.808Z,53.24
2023-05-06T18:32:43.560Z,53.53
2023-05-06T18:35:11.448Z,53.84
2023-05-06T18:37:39.373Z,54.14
2023-05-06T18:40:09.037Z,54.26
2023-05-06T18:42:36.079Z,54.40
2023-05-06T18:45:04.958Z,54.40
2023-05-06T18:47:32.352Z,54.21
2023-05-06T18:50:00.785Z,54.43
2023-05-06T18:52:27.636Z,54.56
2023-05-06T18:54:54.195Z,54.65
2023-05-06T18:57:21.058Z,54.72
2023-05-06T18:59:47.919Z,55.04
2023-05-06T19:02:14.658Z,55.00
2023-05-06T19:04:41.302Z,55.04
2023-05-06T19:07:08.038Z,54.93
2023-05-06T19:09:37.144Z,54.98
2023-05-06T19:12:04.663Z,54.85
2023-05-06T19:14:32.609Z,54.65
2023-05-06T19:16:59.304Z,54.73
2023-05-06T19:19:26.113Z,54.77
2023-05-06T19:21:52.823Z,54.79
2023-05-06T19:24:19.416Z,54.80
2023-05-06T19:26:46.480Z,54.79
2023-05-06T19:29:14.755Z,54.80
2023-05-06T19:31:41.383Z,54.86
2023-05-06T19:34:08.718Z,54.86
2023-05-06T19:36:35.361Z,54.70
2023-05-06T19:39:02.017Z,54.75
2023-05-06T19:41:28.750Z,54.65
2023-05-06T19:43:55.361Z,54.74
2023-05-06T19:46:22.047Z,54.74
2023-05-06T19:48:48.734Z,54.73
2023-05-06T19:51:15.459Z,54.78
2023-05-06T19:53:42.035Z,54.76
2023-05-06T19:56:13.268Z,54.79
2023-05-06T19:58:40.666Z,54.96
2023-05-06T20:01:07.379Z,54.98
2023-05-06T20:03:35.613Z,55.08
2023-05-06T20:06:08.861Z,55.08
2023-05-06T20:08:35.702Z,55.27
2023-05-06T20:11:02.446Z,55.28
2023-05-06T20:13:29.182Z,55.25
2023-05-06T20:15:57.341Z,55.45
2023-05-06T20:18:24.421Z,55.47
2023-05-06T20:20:51.059Z,55.86
2023-05-06T20:23:17.712Z,56.06
2023-05-06T20:25:44.401Z,56.08
2023-05-06T20:28:11.137Z,56.47
2023-05-06T20:30:38.719Z,56.59
2023-05-06T20:33:07.496Z,56.85
2023-05-06T20:35:38.463Z,56.98
2023-05-06T20:38:06.668Z,57.07
2023-05-06T20:40:35.854Z,57.14
2023-05-06T20:43:02.801Z,57.21
2023-05-06T20:45:31.056Z,57.37
2023-05-06T20:47:58.014Z,57.54
2023-05-06T20:50:24.680Z,57.61
2023-05-06T20:52:51.959Z,57.62
2023-05-06T20:55:20.650Z,57.51
2023-05-06T20:57:47.409Z,57.65
2023-05-06T21:00:14.748Z,57.68
2023-05-06T21:02:42.234Z,57.90
2023-05-06T21:05:10.200Z,57.90
2023-05-06T21:07:37.243Z,58.12
2023-05-06T21:10:05.833Z,58.15
2023-05-06T21:12:33.422Z,58.20
2023-05-06T21:15:00.549Z,58.44
2023-05-06T21:17:27.446Z,58.40
2023-05-06T21:19:54.378Z,58.42
2023-05-06T21:22:24.469Z,58.74
2023-05-06T21:24:51.282Z,58.88
2023-05-06T21:27:18.079Z,59.01
2023-05-06T21:29:44.790Z,59.04
2023-05-06T21:32:11.604Z,59.18
2023-05-06T21:34:38.264Z,59.24
2023-05-06T21:37:04.941Z,58.97
2023-05-06T21:39:31.503Z,58.99
2023-05-06T21:41:58.267Z,58.84
2023-05-06T21:44:24.979Z,58.71
2023-05-06T21:46:51.601Z,58.62
2023-05-06T21:49:19.620Z,58.88
2023-05-06T21:51:46.305Z,58.84
2023-05-06T21:54:13.017Z,58.83
2023-05-06T21:56:39.601Z,58.71
2023-05-06T21:59:07.880Z,58.66
2023-05-06T22:01:36.376Z,58.63
2023-05-06T22:04:04.937Z,58.60
2023-05-06T22:06:32.378Z,58.67
2023-05-06T22:08:59.018Z,58.51
2023-05-06T22:11:25.583Z,58.63
2023-05-06T22:13:52.298Z,58.47
2023-05-06T22:16:18.938Z,58.49
2023-05-06T22:18:45.749Z,58.68
2023-05-06T22:21:12.441Z,58.70
2023-05-06T22:23:40.704Z,58.63
2023-05-06T22:26:07.461Z,58.77
2023-05-06T22:28:34.489Z,58.64
2023-05-06T22:31:01.154Z,58.70
2023-05-06T22:33:27.820Z,58.67
2023-05-06T22:35:55.537Z,58.72
2023-05-06T22:38:22.246Z,58.81
2023-05-06T22:40:48.921Z,58.90
2023-05-06T22:43:15.632Z,58.85
2023-05-06T22:45:42.298Z,59.09
2023-05-06T22:48:08.989Z,59.23
2023-05-06T22:50:36.496Z,59.06
2023-05-06T22:53:13.686Z,59.27
2023-05-06T22:55:42.086Z,59.32
2023-05-06T22:58:08.791Z,59.25
2023-05-06T23:00:35.567Z,59.21
2023-05-06T23:03:02.918Z,59.41
2023-05-06T23:05:29.565Z,59.61
2023-05-06T23:07:56.166Z,60.11
2023-05-06T23:10:22.873Z,60.32
2023-05-06T23:12:49.551Z,60.28
2023-05-06T23:15:16.212Z,60.32
2023-05-06T23:17:42.895Z,60.47
2023-05-06T23:20:11.931Z,60.84
2023-05-06T23:22:38.647Z,61.13
2023-05-06T23:25:05.814Z,61.25
2023-05-06T23:27:32.416Z,61.29
2023-05-06T23:29:59.088Z,61.31
2023-05-06T23:32:25.782Z,61.39
2023-05-06T23:34:52.802Z,61.28
2023-05-06T23:37:19.444Z,61.41
2023-05-06T23:39:47.565Z,61.37
2023-05-06T23:42:14.388Z,61.32
2023-05-06T23:44:41.099Z,60.99
2023-05-06T23:47:07.692Z,61.08
2023-05-06T23:49:35.995Z,61.35
2023-05-06T23:52:03.187Z,61.23
2023-05-06T23:54:30.038Z,61.33
2023-05-06T23:56:56.696Z,61.51
2023-05-06T23:59:23.352Z,61.45
